Historyczne dane pomiarowe

Dodano dane terminowe – wersja testowa.

Dane z okresu 1951-2019

Wersja bazy: 1.34 [2019-03-16, lista zmian], aktualizacja planowana na 2019-04-15

Dane meteo z obszaru Polski uzyskane na podstawie danych udostępnionych przez Instytut Meteorologii i Gospodarki Wodnej – Państwowy Instytut Badawczy.

 

Wybierz Datę:    

       

TemperaturaWilgotnośćZachmurzenieWiatrCiśnienieWidzialnośćZjawiska
 Data    tng td wb rh cc ccl cl cm ch dir g1 g2 mslp ppp      
1999-07-08 00:00:00 16.4--- 15.9 16.197wxwxwxwx4wx--1019.1 994.7 1.0---wx
1999-07-08 01:00:00 16.1--- 15.6 15.897wxwxwxwx4wx--1018.7 994.3----wxw1
1999-07-08 02:00:00 16.1--- 15.8 15.998wxwxwxwx5wx--1017.7 993.3----wxw1
1999-07-08 03:00:00 16.2--- 15.7 15.997wxwxwxwx4wx--1017.9 993.5----wx
1999-07-08 04:00:00 16.4--- 15.9 16.197wxwxwxwx4wx--1017.9 993.5----wx
1999-07-08 05:00:00 16.5--- 15.9 16.196wxwxwxwx3wx--1017.9 993.5----wx
1999-07-08 06:00:00 16.7--- 16.1 16.396wxwxwxwx4wx--1018.2 993.8 7.8---wxw1
1999-07-08 07:00:00 17.0--- 16.0 16.494wxwxwxwx4wx--1018.2 993.8----wx
1999-07-08 08:00:00 17.6--- 15.9 16.589wxwxwxwx5wx--1018.6 994.3----wx
1999-07-08 09:00:00 16.6--- 15.8 16.195wxwxwxwx4wx--1018.9 994.5----wx
1999-07-08 10:00:00 17.6--- 15.9 16.589wxwxwxwx5wx--1019.2 994.9----wxw1
1999-07-08 11:00:00 16.6--- 14.6 15.488wxwxwxwx6wx--1020.0 995.6----wxw1
1999-07-08 12:00:00 15.2--- 14.2 14.694wxwxwxwx7wx--1020.3 995.7 1.9---wx
1999-07-08 13:00:00 14.5--- 13.3 13.893wxwxwxwx7wx12-1020.7 996.1----wxw1
1999-07-08 14:00:00 14.3--- 13.3 13.794wxwxwxwx8wx13-1020.7 996.1----wxw1
1999-07-08 15:00:00 14.2--- 13.4 13.795wxwxwxwx6wx--1021.3 996.6----wxw1
1999-07-08 16:00:00 14.9--- 13.6 14.192wxwxwxwx7wx--1021.4 996.8----wxw1
1999-07-08 17:00:00 14.9--- 13.7 14.293wxwxwxwx7wx--1021.5 996.9----wxw1
1999-07-08 18:00:00 15.1--- 14.4 14.796wxwxwxwx5wx--1021.6 997.0 1.2---wxw1
1999-07-08 19:00:00 15.0--- 14.5 14.797wxwxwxwx5wx--1021.9 997.3----wxw1
1999-07-08 20:00:00 15.0--- 14.5 14.797wxwxwxwx4wx--1022.1 997.5----wxw1
1999-07-08 21:00:00 14.9--- 14.4 14.697wxwxwxwx4wx--1022.0 997.4----wxw1
1999-07-08 22:00:00 14.9--- 14.2 14.596wxwxwxwx4wx--1021.5 996.9----wxw1
1999-07-08 23:00:00 14.8--- 14.1 14.496wxwxwxwx3wx--1021.9 997.3----wxw1

 

Źródłem pochodzenia danych jest Instytut Meteorologii i Gospodarki Wodnej – Państwowy Instytut Badawczy. Dane Instytutu Meteorologii i Gospodarki Wodnej – Państwowego Instytutu Badawczego zostały przetworzone.

Dane źródłowe można odnaleźć na stronie https://dane.imgw.pl